Time;durP1;ratioP1;P1;durP2;ratioP2;P2;SDS_P1;SDS_P2;PMS_P1;PMS_P2;Temp;Humidity;BMP_temperature;BMP_pressure;BME280_temperature;BME280_humidity;BME280_pressure;Samples;Min_cycle;Max_cycle;Signal;HPM_P1;HPM_P2
2023/03/19 00:00:13;;;;;;;14.85;13.40;;;6.70;99.90;;;;;;6248011;23;20348;-86
2023/03/19 00:02:39;;;;;;;15.35;13.60;;;6.60;99.90;;;;;;6247498;23;20348;-86
2023/03/19 00:05:05;;;;;;;14.65;12.63;;;6.60;99.90;;;;;;6221317;23;20830;-86
2023/03/19 00:07:31;;;;;;;13.77;12.38;;;6.50;99.90;;;;;;6247503;23;20344;-85
2023/03/19 00:09:57;;;;;;;15.13;13.52;;;6.50;99.90;;;;;;6229973;23;20398;-86
2023/03/19 00:12:22;;;;;;;18.52;16.65;;;6.50;99.90;;;;;;6202329;23;20353;-87
2023/03/19 00:14:48;;;;;;;20.07;16.10;;;6.50;99.90;;;;;;6220097;23;20688;-86
2023/03/19 00:17:14;;;;;;;16.67;15.07;;;6.40;99.90;;;;;;6245377;23;20348;-86
2023/03/19 00:19:40;;;;;;;17.02;15.35;;;6.40;99.90;;;;;;6244429;23;20419;-86
2023/03/19 00:22:06;;;;;;;17.70;15.90;;;6.40;99.90;;;;;;6248077;23;20344;-86
2023/03/19 00:24:33;;;;;;;18.13;16.27;;;6.40;99.90;;;;;;6244986;23;20367;-85
2023/03/19 00:26:59;;;;;;;17.77;15.93;;;6.50;99.90;;;;;;6245621;23;20753;-86
2023/03/19 00:29:24;;;;;;;18.90;16.93;;;6.50;99.90;;;;;;6217655;23;20387;-86
2023/03/19 00:31:51;;;;;;;19.25;17.23;;;6.50;99.90;;;;;;6246380;23;20364;-86
2023/03/19 00:34:20;;;;;;;19.10;16.77;;;6.40;99.90;;;;;;6219589;23;20352;-86
2023/03/19 00:36:46;;;;;;;19.20;17.15;;;6.40;99.90;;;;;;6220784;23;20699;-86
2023/03/19 00:39:12;;;;;;;19.25;17.25;;;6.40;99.90;;;;;;6252466;23;20364;-86
2023/03/19 00:41:37;;;;;;;19.35;16.08;;;6.30;99.90;;;;;;6251460;23;20337;-85
2023/03/19 00:44:04;;;;;;;18.83;16.97;;;6.30;99.90;;;;;;6220934;23;20435;-87
2023/03/19 00:46:30;;;;;;;20.88;18.63;;;6.10;99.90;;;;;;6246253;23;20364;-86
2023/03/19 00:48:57;;;;;;;18.90;16.88;;;6.00;99.90;;;;;;6245846;23;20823;-86
2023/03/19 00:51:24;;;;;;;20.70;18.55;;;6.00;99.90;;;;;;6215235;23;20441;-86
2023/03/19 00:53:51;;;;;;;19.77;17.77;;;6.10;99.90;;;;;;6218353;23;20422;-86
2023/03/19 00:56:17;;;;;;;19.17;17.17;;;6.00;99.90;;;;;;6248215;23;20466;-85
2023/03/19 00:58:43;;;;;;;19.17;17.33;;;6.00;99.90;;;;;;6217139;23;20402;-85
2023/03/19 01:01:12;;;;;;;21.58;19.30;;;6.00;99.90;;;;;;6245043;23;20336;-86
2023/03/19 01:03:38;;;;;;;22.33;19.93;;;6.00;99.90;;;;;;6243863;23;20388;-86
2023/03/19 01:06:05;;;;;;;24.27;21.70;;;6.00;99.90;;;;;;6245853;23;20475;-86
2023/03/19 01:08:30;;;;;;;24.23;21.60;;;6.00;99.90;;;;;;6245113;23;20378;-86
2023/03/19 01:11:03;;;;;;;22.95;20.65;;;6.00;99.90;;;;;;6218705;23;20411;-86
2023/03/19 01:13:29;;;;;;;24.00;21.60;;;6.00;99.90;;;;;;6243197;23;20356;-84
2023/03/19 01:15:55;;;;;;;24.10;21.60;;;5.90;99.90;;;;;;6243602;23;20379;-85
2023/03/19 01:18:21;;;;;;;24.33;21.83;;;5.90;99.90;;;;;;6244758;23;20344;-86
2023/03/19 01:20:47;;;;;;;22.67;20.33;;;5.80;99.90;;;;;;6245634;23;20348;-86
2023/03/19 01:23:12;;;;;;;23.80;20.70;;;5.80;99.90;;;;;;6218983;23;20905;-86
2023/03/19 01:25:38;;;;;;;20.27;18.23;;;5.70;99.90;;;;;;6245499;23;20795;-87
2023/03/19 01:28:04;;;;;;;19.48;17.48;;;5.90;99.90;;;;;;6217466;23;20357;-85
2023/03/19 01:30:30;;;;;;;18.83;16.90;;;5.90;99.90;;;;;;6246219;23;20395;-86
2023/03/19 01:32:56;;;;;;;19.83;17.40;;;5.80;99.90;;;;;;6246310;23;20344;-85
2023/03/19 01:35:22;;;;;;;19.35;17.38;;;5.70;99.90;;;;;;6221325;23;20431;-87
2023/03/19 01:37:48;;;;;;;18.13;16.30;;;5.70;99.90;;;;;;6246640;23;20394;-85
2023/03/19 01:40:14;;;;;;;19.88;17.88;;;5.60;99.90;;;;;;6246492;23;20414;-86
2023/03/19 01:43:11;;;;;;;19.80;17.80;;;5.60;99.90;;;;;;6247637;23;20343;-88
2023/03/19 01:45:39;;;;;;;19.13;17.08;;;5.50;99.90;;;;;;6221438;23;20411;-87
2023/03/19 01:48:06;;;;;;;17.67;15.90;;;5.70;99.90;;;;;;6220852;23;20684;-85
2023/03/19 01:50:42;;;;;;;18.58;16.58;;;5.70;99.90;;;;;;6220086;23;20442;-87
2023/03/19 01:53:11;;;;;;;18.52;16.17;;;5.80;99.90;;;;;;6220401;23;20523;-86
2023/03/19 01:55:37;;;;;;;19.50;17.17;;;5.90;99.90;;;;;;6245804;23;20860;-85
2023/03/19 01:58:05;;;;;;;18.80;16.90;;;5.90;99.90;;;;;;6218159;23;20356;-85
2023/03/19 02:00:33;;;;;;;19.60;17.60;;;5.80;99.90;;;;;;6245828;23;20353;-85
2023/03/19 02:03:01;;;;;;;21.90;18.95;;;5.80;99.90;;;;;;6220839;23;20371;-86
2023/03/19 02:05:27;;;;;;;19.42;17.38;;;5.90;99.90;;;;;;6247547;23;20340;-86
2023/03/19 02:07:58;;;;;;;20.47;18.23;;;6.00;99.90;;;;;;6245272;23;20344;-86
2023/03/19 02:10:26;;;;;;;19.67;17.58;;;6.10;99.90;;;;;;6246804;23;20421;-85
2023/03/19 02:12:52;;;;;;;20.73;17.87;;;6.20;99.90;;;;;;6221131;23;20348;-85
2023/03/19 02:15:18;;;;;;;20.93;17.40;;;6.40;99.90;;;;;;6248782;23;20375;-86
2023/03/19 02:17:45;;;;;;;20.73;18.40;;;6.50;99.90;;;;;;6220117;23;20347;-86
2023/03/19 02:20:16;;;;;;;18.60;16.70;;;6.50;99.90;;;;;;6221824;23;20352;-86
2023/03/19 02:23:14;;;;;;;20.10;17.13;;;6.60;99.90;;;;;;6223979;23;20510;-85
2023/03/19 02:25:43;;;;;;;19.95;16.98;;;6.70;99.90;;;;;;6224135;23;20356;-85
2023/03/19 02:28:10;;;;;;;18.10;16.13;;;6.90;99.90;;;;;;6250057;23;20345;-86
2023/03/19 02:30:37;;;;;;;18.38;15.77;;;6.80;99.90;;;;;;6260047;22;20430;-84
2023/03/19 02:33:02;;;;;;;17.98;16.02;;;6.90;99.90;;;;;;6244041;22;20435;-84
2023/03/19 02:35:32;;;;;;;17.27;15.47;;;7.20;99.90;;;;;;6269216;22;20372;-86
2023/03/19 02:38:01;;;;;;;18.30;16.35;;;7.20;99.90;;;;;;6265548;23;20351;-87
2023/03/19 02:40:36;;;;;;;16.92;15.05;;;7.10;99.90;;;;;;6248390;23;20344;-87
2023/03/19 02:43:01;;;;;;;17.45;15.70;;;7.10;99.90;;;;;;6249048;22;20385;-87
2023/03/19 02:45:30;;;;;;;18.50;16.08;;;6.70;99.90;;;;;;6251315;22;20354;-86
2023/03/19 02:47:56;;;;;;;17.80;15.90;;;6.70;99.90;;;;;;6249357;22;20406;-86
2023/03/19 02:50:22;;;;;;;17.70;15.80;;;6.80;99.90;;;;;;6251699;22;20382;-86
2023/03/19 02:52:48;;;;;;;18.42;16.45;;;7.00;99.90;;;;;;6251979;22;20350;-86
2023/03/19 02:55:14;;;;;;;18.43;15.90;;;6.80;99.90;;;;;;6254067;22;20409;-87
2023/03/19 02:57:39;;;;;;;17.50;15.33;;;6.70;99.90;;;;;;6284631;22;20363;-86
2023/03/19 03:00:06;;;;;;;17.23;15.43;;;6.90;99.90;;;;;;6299889;22;20350;-86
2023/03/19 03:02:32;;;;;;;18.58;15.95;;;6.80;99.90;;;;;;6273123;22;20369;-86
2023/03/19 03:04:58;;;;;;;18.17;15.95;;;6.70;99.90;;;;;;6270414;22;20338;-85
2023/03/19 03:07:23;;;;;;;19.20;16.83;;;6.80;99.90;;;;;;6287756;22;20786;-86
2023/03/19 03:09:49;;;;;;;19.85;16.58;;;6.70;99.90;;;;;;6251432;22;20680;-86
2023/03/19 03:12:15;;;;;;;18.15;16.25;;;6.60;99.90;;;;;;6279788;22;20421;-86
2023/03/19 03:14:41;;;;;;;19.77;17.67;;;6.70;99.90;;;;;;6250840;22;20374;-86
2023/03/19 03:17:07;;;;;;;18.67;16.13;;;6.70;99.90;;;;;;6250665;22;20351;-87
2023/03/19 03:19:34;;;;;;;18.52;15.95;;;6.90;99.90;;;;;;6278441;22;20430;-87
2023/03/19 03:22:00;;;;;;;20.33;17.60;;;7.00;99.90;;;;;;6275368;22;20328;-87
2023/03/19 03:24:26;;;;;;;19.20;15.95;;;6.80;99.90;;;;;;6247075;22;20354;-86
2023/03/19 03:26:52;;;;;;;18.85;16.27;;;6.80;99.90;;;;;;6274140;22;20481;-86
2023/03/19 03:29:18;;;;;;;18.75;16.00;;;6.80;99.90;;;;;;6275991;22;20351;-87
2023/03/19 03:31:44;;;;;;;18.80;16.80;;;6.90;99.90;;;;;;6249339;22;20370;-86
2023/03/19 03:34:09;;;;;;;17.73;15.93;;;6.90;99.90;;;;;;6247360;22;20773;-87
2023/03/19 03:36:36;;;;;;;19.67;16.25;;;7.00;99.90;;;;;;6248783;22;20698;-87
2023/03/19 03:39:03;;;;;;;18.40;16.30;;;7.20;99.90;;;;;;6277878;22;20359;-86
2023/03/19 03:41:28;;;;;;;19.75;15.63;;;7.40;99.90;;;;;;6250871;22;20350;-86
2023/03/19 03:43:54;;;;;;;16.73;14.93;;;7.40;99.90;;;;;;6277716;22;20350;-86
2023/03/19 03:46:20;;;;;;;17.35;15.65;;;7.40;99.90;;;;;;6276835;22;20342;-87
2023/03/19 03:48:48;;;;;;;17.70;15.80;;;7.40;99.90;;;;;;6276700;22;20398;-87
2023/03/19 03:51:14;;;;;;;18.90;17.00;;;7.50;99.90;;;;;;6249870;22;20801;-87
2023/03/19 03:53:40;;;;;;;19.20;16.30;;;7.50;99.90;;;;;;6251557;22;20366;-86
2023/03/19 03:56:06;;;;;;;18.65;16.75;;;7.40;99.90;;;;;;6276302;22;20430;-87
2023/03/19 03:58:32;;;;;;;20.98;18.75;;;7.50;99.90;;;;;;6274396;22;20374;-88
2023/03/19 04:00:57;;;;;;;21.35;19.00;;;7.50;99.90;;;;;;6248908;22;20361;-87
2023/03/19 04:03:23;;;;;;;20.80;18.55;;;7.50;99.90;;;;;;6247877;22;20358;-87
2023/03/19 04:05:50;;;;;;;23.10;19.77;;;7.50;99.90;;;;;;6247905;22;20783;-87
2023/03/19 04:08:16;;;;;;;22.05;19.60;;;7.50;99.90;;;;;;6247014;22;20353;-86
2023/03/19 04:10:42;;;;;;;20.35;17.77;;;7.30;99.90;;;;;;6272451;22;20354;-86
2023/03/19 04:13:11;;;;;;;21.05;17.58;;;7.30;99.90;;;;;;6246215;22;20761;-86
2023/03/19 04:15:38;;;;;;;23.17;19.15;;;7.40;99.90;;;;;;6274518;22;20377;-86
2023/03/19 04:18:03;;;;;;;22.53;18.57;;;7.20;99.90;;;;;;6273526;22;20350;-85
2023/03/19 04:20:30;;;;;;;20.10;18.10;;;7.40;99.90;;;;;;6272597;22;20355;-86
2023/03/19 04:22:55;;;;;;;22.00;19.60;;;7.40;99.90;;;;;;6273706;22;20338;-86
2023/03/19 04:25:21;;;;;;;21.40;19.07;;;7.20;99.90;;;;;;6272925;22;20353;-85
2023/03/19 04:27:47;;;;;;;22.85;20.23;;;7.00;99.90;;;;;;6272349;22;20362;-86
2023/03/19 04:30:14;;;;;;;22.05;18.73;;;7.00;99.90;;;;;;6273019;22;20729;-85
2023/03/19 04:32:40;;;;;;;22.50;18.70;;;7.20;99.90;;;;;;6273227;22;20404;-87
2023/03/19 04:35:07;;;;;;;23.27;19.90;;;7.10;99.90;;;;;;6274002;22;20416;-84
2023/03/19 04:37:33;;;;;;;23.10;20.65;;;7.00;99.90;;;;;;6273084;22;20347;-86
2023/03/19 04:39:58;;;;;;;26.13;23.30;;;6.80;99.90;;;;;;6272015;22;20334;-85
2023/03/19 04:42:24;;;;;;;24.90;22.27;;;7.00;99.90;;;;;;6272566;22;20359;-86
2023/03/19 04:44:51;;;;;;;27.38;23.05;;;7.20;99.90;;;;;;6246126;22;20347;-86
2023/03/19 04:47:17;;;;;;;29.55;26.13;;;7.20;99.90;;;;;;6273306;22;20349;-86
2023/03/19 04:49:43;;;;;;;31.67;28.27;;;7.20;99.90;;;;;;6272675;22;20335;-85
2023/03/19 04:52:08;;;;;;;33.25;29.58;;;7.10;99.90;;;;;;6248454;22;20659;-86
2023/03/19 04:54:34;;;;;;;32.23;28.73;;;7.00;99.90;;;;;;6275914;22;20362;-85
2023/03/19 04:57:00;;;;;;;32.67;28.02;;;7.10;99.90;;;;;;6273267;22;20330;-86
2023/03/19 04:59:26;;;;;;;34.35;27.77;;;7.10;99.90;;;;;;6246069;22;20790;-84
2023/03/19 05:01:51;;;;;;;32.80;27.77;;;7.30;99.90;;;;;;6273369;22;20432;-84
2023/03/19 05:04:17;;;;;;;29.10;26.00;;;7.30;99.90;;;;;;6275466;22;20782;-85
2023/03/19 05:06:43;;;;;;;31.10;27.60;;;7.30;99.90;;;;;;6273082;22;20347;-85
2023/03/19 05:09:09;;;;;;;31.58;27.35;;;7.40;99.90;;;;;;6245265;22;20361;-85
2023/03/19 05:11:35;;;;;;;31.15;27.88;;;7.30;99.90;;;;;;6273697;22;20425;-84
2023/03/19 05:14:01;;;;;;;33.37;28.30;;;7.30;99.90;;;;;;6271929;22;20759;-85
2023/03/19 05:16:26;;;;;;;30.90;27.60;;;7.20;99.90;;;;;;6272771;22;20370;-85
2023/03/19 05:18:52;;;;;;;31.88;27.38;;;7.30;99.90;;;;;;6272350;22;20432;-85
2023/03/19 05:21:17;;;;;;;34.22;28.60;;;7.30;99.90;;;;;;6272903;22;20342;-84
2023/03/19 05:23:44;;;;;;;32.00;28.60;;;7.40;99.90;;;;;;6244498;22;20725;-84
2023/03/19 05:26:10;;;;;;;33.90;28.80;;;7.40;99.90;;;;;;6247505;22;20351;-83
2023/03/19 05:28:36;;;;;;;32.97;29.42;;;7.40;99.90;;;;;;6270032;22;20350;-85
2023/03/19 05:31:03;;;;;;;33.28;29.60;;;7.40;99.90;;;;;;6273270;22;20395;-85
2023/03/19 05:33:29;;;;;;;31.70;27.92;;;7.40;99.90;;;;;;6274150;22;20334;-85
2023/03/19 05:35:54;;;;;;;31.38;28.05;;;7.50;99.90;;;;;;6246884;22;20390;-85
2023/03/19 05:38:20;;;;;;;36.42;29.80;;;7.60;99.90;;;;;;6275782;22;20422;-85
2023/03/19 05:40:46;;;;;;;31.90;28.45;;;7.50;99.90;;;;;;6253389;22;20427;-85
2023/03/19 05:43:12;;;;;;;31.77;28.45;;;7.60;99.90;;;;;;6297990;22;20363;-85
2023/03/19 05:45:39;;;;;;;35.20;30.17;;;7.60;99.90;;;;;;6298984;22;20354;-84
2023/03/19 05:48:05;;;;;;;34.57;30.47;;;7.70;99.90;;;;;;6250203;22;20343;-84
2023/03/19 05:50:32;;;;;;;33.23;28.80;;;7.70;99.90;;;;;;6276509;22;20365;-85
2023/03/19 05:52:58;;;;;;;32.88;29.33;;;7.80;99.90;;;;;;6274028;22;20330;-86
2023/03/19 05:55:24;;;;;;;36.17;31.92;;;7.70;99.90;;;;;;6247625;22;20377;-85
2023/03/19 05:57:50;;;;;;;32.78;29.17;;;7.60;99.90;;;;;;6273989;22;20423;-84
2023/03/19 06:00:16;;;;;;;35.85;31.55;;;7.60;99.90;;;;;;6274315;22;20358;-85
2023/03/19 06:02:43;;;;;;;35.23;30.97;;;7.60;99.90;;;;;;6275505;22;20413;-85
2023/03/19 06:05:09;;;;;;;34.78;30.38;;;7.60;99.90;;;;;;6274924;22;20369;-85
2023/03/19 06:07:36;;;;;;;33.25;29.75;;;7.60;99.90;;;;;;6272834;22;20815;-85
2023/03/19 06:10:03;;;;;;;32.15;28.65;;;7.60;99.90;;;;;;6273121;22;20683;-85
2023/03/19 06:12:29;;;;;;;32.63;29.13;;;7.80;99.90;;;;;;6247428;22;20438;-85
2023/03/19 06:14:55;;;;;;;31.08;27.52;;;7.80;99.90;;;;;;6273961;22;20545;-85
2023/03/19 06:17:21;;;;;;;28.90;25.90;;;7.80;99.90;;;;;;6273801;22;20352;-85
2023/03/19 06:19:46;;;;;;;30.33;27.13;;;8.00;99.90;;;;;;6275415;22;20658;-85
2023/03/19 06:22:12;;;;;;;28.83;25.73;;;8.10;99.90;;;;;;6276446;22;20354;-86
2023/03/19 06:24:38;;;;;;;30.27;26.63;;;8.00;99.90;;;;;;6278184;22;20848;-86
2023/03/19 06:27:04;;;;;;;32.63;28.70;;;8.10;99.90;;;;;;6274419;22;20358;-86
2023/03/19 06:29:29;;;;;;;37.47;32.40;;;7.90;99.90;;;;;;6248414;22;20359;-85
2023/03/19 06:31:55;;;;;;;36.33;32.33;;;7.80;99.90;;;;;;6248852;22;20350;-86
2023/03/19 06:34:21;;;;;;;31.40;28.20;;;7.80;99.90;;;;;;6248020;22;20437;-85
2023/03/19 06:36:47;;;;;;;34.10;30.33;;;8.00;99.90;;;;;;6275504;22;20446;-84
2023/03/19 06:39:13;;;;;;;32.15;28.75;;;8.00;99.90;;;;;;6273458;22;20369;-84
2023/03/19 06:41:39;;;;;;;37.83;32.17;;;8.10;99.90;;;;;;6274166;22;20358;-83
2023/03/19 06:44:05;;;;;;;35.00;30.80;;;7.90;99.90;;;;;;6273047;22;20824;-85
2023/03/19 06:46:31;;;;;;;33.93;30.20;;;8.00;99.90;;;;;;6273393;22;20335;-86
2023/03/19 06:48:56;;;;;;;34.90;30.97;;;8.00;99.90;;;;;;6272786;22;20365;-86
2023/03/19 06:51:22;;;;;;;33.95;29.88;;;8.10;99.90;;;;;;6247701;22;20358;-86
2023/03/19 06:53:48;;;;;;;31.48;28.25;;;8.20;99.90;;;;;;6274439;22;20346;-85
2023/03/19 06:56:14;;;;;;;36.92;31.83;;;8.30;99.90;;;;;;6246058;22;20366;-85
2023/03/19 06:58:40;;;;;;;34.95;30.80;;;8.20;99.90;;;;;;6273211;22;20351;-85
2023/03/19 07:01:06;;;;;;;36.58;32.65;;;8.20;99.90;;;;;;6245548;22;20776;-86
2023/03/19 07:03:32;;;;;;;35.97;32.20;;;8.20;99.90;;;;;;6272109;22;20343;-84
2023/03/19 07:05:57;;;;;;;35.33;31.67;;;8.30;99.90;;;;;;6272901;22;20479;-85
2023/03/19 07:08:28;;;;;;;40.10;35.73;;;8.40;99.90;;;;;;6272331;22;20338;-84
2023/03/19 07:11:01;;;;;;;36.42;32.42;;;8.40;99.90;;;;;;6246262;22;20971;-85
2023/03/19 07:13:27;;;;;;;38.03;32.63;;;8.30;99.90;;;;;;6274270;22;20343;-85
2023/03/19 07:15:53;;;;;;;35.43;31.47;;;8.10;99.90;;;;;;6248345;22;20700;-86
2023/03/19 07:18:18;;;;;;;33.95;30.45;;;8.30;99.90;;;;;;6275023;22;20429;-86
2023/03/19 07:20:44;;;;;;;33.22;29.70;;;8.30;99.90;;;;;;6276005;22;20366;-86
2023/03/19 07:23:10;;;;;;;33.80;30.25;;;8.40;99.90;;;;;;6277582;22;20809;-86
2023/03/19 07:25:36;;;;;;;33.72;30.20;;;8.40;99.90;;;;;;6277005;22;20444;-86
2023/03/19 07:28:01;;;;;;;34.13;30.53;;;8.40;99.90;;;;;;6275790;22;20793;-86
2023/03/19 07:30:27;;;;;;;33.22;29.63;;;8.50;99.90;;;;;;6248344;22;20412;-87
2023/03/19 07:32:54;;;;;;;34.08;30.20;;;8.50;99.90;;;;;;6275257;22;20346;-86
2023/03/19 07:35:20;;;;;;;31.80;28.60;;;8.50;99.90;;;;;;6245670;22;20378;-86
2023/03/19 07:37:45;;;;;;;30.87;27.60;;;8.70;99.90;;;;;;6273786;22;20827;-86
2023/03/19 07:40:12;;;;;;;32.10;28.63;;;8.70;99.90;;;;;;6247460;22;20379;-86
2023/03/19 07:42:38;;;;;;;29.08;26.05;;;8.80;99.90;;;;;;6273826;22;20347;-86
2023/03/19 07:45:04;;;;;;;27.27;24.57;;;9.10;99.90;;;;;;6246045;22;20913;-87
2023/03/19 07:47:30;;;;;;;26.27;23.48;;;9.20;99.90;;;;;;6274446;22;20494;-87
2023/03/19 07:49:57;;;;;;;26.42;23.67;;;9.30;99.90;;;;;;6274264;22;20366;-86
2023/03/19 07:52:24;;;;;;;27.77;24.97;;;9.30;99.90;;;;;;6245752;22;20339;-85
2023/03/19 07:54:51;;;;;;;26.43;23.73;;;9.20;99.90;;;;;;6274896;22;20378;-86
2023/03/19 07:57:18;;;;;;;28.05;25.15;;;9.20;99.90;;;;;;6247885;22;20343;-87
2023/03/19 07:59:44;;;;;;;28.65;25.75;;;9.10;99.90;;;;;;6248785;22;20358;-86
2023/03/19 08:02:11;;;;;;;30.73;27.50;;;9.00;99.90;;;;;;6274099;22;20343;-85
2023/03/19 08:04:37;;;;;;;29.67;26.55;;;9.00;99.90;;;;;;6276140;22;20861;-84
2023/03/19 08:07:03;;;;;;;30.77;27.17;;;9.10;99.90;;;;;;6273961;22;20390;-87
2023/03/19 08:09:29;;;;;;;30.60;27.57;;;9.00;99.90;;;;;;6276268;22;20346;-87
2023/03/19 08:11:56;;;;;;;29.83;26.67;;;9.20;99.90;;;;;;6275482;22;20334;-86
2023/03/19 08:14:22;;;;;;;32.40;28.90;;;9.20;99.90;;;;;;6274743;22;20369;-84
2023/03/19 08:16:48;;;;;;;35.87;32.07;;;9.00;99.90;;;;;;6247311;22;20342;-84
2023/03/19 08:19:15;;;;;;;34.28;30.63;;;8.80;99.90;;;;;;6277142;22;20338;-85
2023/03/19 08:21:41;;;;;;;32.70;28.93;;;8.80;99.90;;;;;;6250921;22;20346;-85
2023/03/19 08:24:07;;;;;;;33.93;30.40;;;8.90;99.90;;;;;;6260384;22;20366;-84
2023/03/19 08:26:33;;;;;;;35.93;30.20;;;8.80;99.90;;;;;;6298870;22;20414;-84
2023/03/19 08:28:59;;;;;;;31.03;27.83;;;8.90;99.90;;;;;;6293489;22;20354;-85
2023/03/19 08:31:25;;;;;;;30.55;27.25;;;9.00;99.90;;;;;;6275617;22;20397;-86
2023/03/19 08:33:51;;;;;;;31.90;28.50;;;9.10;99.90;;;;;;6274253;22;20399;-86
2023/03/19 08:36:17;;;;;;;31.25;27.52;;;9.10;99.90;;;;;;6248451;22;20366;-88
2023/03/19 08:38:43;;;;;;;31.97;28.23;;;9.20;99.90;;;;;;6274689;22;20415;-88
2023/03/19 08:41:09;;;;;;;31.20;27.83;;;9.00;99.90;;;;;;6273803;22;20367;-86
2023/03/19 08:43:36;;;;;;;30.65;27.60;;;9.10;99.90;;;;;;6274542;22;20401;-88
2023/03/19 08:46:04;;;;;;;28.70;25.65;;;9.20;99.90;;;;;;6273722;22;20385;-87
2023/03/19 08:48:32;;;;;;;29.88;26.67;;;9.20;99.90;;;;;;6273847;22;20339;-87
2023/03/19 08:51:01;;;;;;;28.52;24.98;;;9.20;99.90;;;;;;6244250;22;20381;-84
2023/03/19 08:53:27;;;;;;;28.00;24.98;;;9.30;99.90;;;;;;6244636;22;20354;-84
2023/03/19 08:55:58;;;;;;;27.80;24.80;;;9.40;99.90;;;;;;6273860;22;20377;-82
2023/03/19 08:58:25;;;;;;;27.30;24.33;;;9.40;99.90;;;;;;6271072;22;20350;-84
2023/03/19 09:00:52;;;;;;;25.80;23.20;;;9.50;99.90;;;;;;6269478;22;20366;-84
2023/03/19 09:03:19;;;;;;;25.17;22.70;;;9.60;99.90;;;;;;6273350;22;20528;-83
2023/03/19 09:05:45;;;;;;;23.60;21.10;;;9.70;99.90;;;;;;6272488;22;20374;-82
2023/03/19 09:08:14;;;;;;;23.88;21.38;;;9.80;99.90;;;;;;6271215;22;20446;-84
2023/03/19 09:10:39;;;;;;;23.45;20.95;;;9.70;99.90;;;;;;6272490;22;20421;-83
2023/03/19 09:13:05;;;;;;;23.40;21.00;;;9.70;99.90;;;;;;6272511;22;20347;-83
2023/03/19 09:15:31;;;;;;;22.13;19.87;;;9.80;99.90;;;;;;6271077;22;20370;-82
2023/03/19 09:17:57;;;;;;;23.15;20.77;;;9.90;99.90;;;;;;6271503;22;20362;-82
2023/03/19 09:20:25;;;;;;;24.55;22.02;;;9.80;99.90;;;;;;6272693;22;20420;-83
2023/03/19 09:22:54;;;;;;;23.77;21.23;;;9.90;99.90;;;;;;6244736;22;20397;-83
2023/03/19 09:25:28;;;;;;;21.73;19.35;;;9.90;99.90;;;;;;6245879;22;20409;-83
2023/03/19 09:27:56;;;;;;;22.15;19.83;;;10.10;99.90;;;;;;6271717;22;20354;-84
2023/03/19 09:30:22;;;;;;;21.30;19.07;;;10.10;99.90;;;;;;6272570;22;20835;-83
2023/03/19 09:32:48;;;;;;;21.60;19.30;;;10.30;99.90;;;;;;6243531;22;20355;-84
2023/03/19 09:35:15;;;;;;;21.75;18.92;;;10.20;99.90;;;;;;6272163;22;20411;-83
2023/03/19 09:37:44;;;;;;;20.63;18.50;;;10.40;99.90;;;;;;6220330;22;20351;-83
2023/03/19 09:40:48;;;;;;;20.83;18.73;;;10.50;99.90;;;;;;6272871;22;20377;-83
2023/03/19 09:43:42;;;;;;;21.23;18.92;;;10.50;99.90;;;;;;6243710;22;20716;-83
2023/03/19 09:46:20;;;;;;;20.67;18.58;;;10.60;99.90;;;;;;6246374;22;20642;-84
2023/03/19 09:49:03;;;;;;;20.50;18.40;;;10.70;99.90;;;;;;6243776;22;20350;-84
2023/03/19 09:51:43;;;;;;;20.27;18.15;;;10.80;99.90;;;;;;6245975;22;20388;-84
2023/03/19 09:54:29;;;;;;;20.17;18.08;;;10.90;99.90;;;;;;6266692;22;20386;-83
2023/03/19 09:56:58;;;;;;;19.93;17.93;;;10.90;99.90;;;;;;6270708;22;20381;-84
2023/03/19 09:59:26;;;;;;;19.98;17.98;;;10.80;99.90;;;;;;6270423;22;20342;-84
2023/03/19 10:02:24;;;;;;;21.05;18.83;;;10.90;99.90;;;;;;6271070;22;20336;-85
2023/03/19 10:05:05;;;;;;;22.03;19.67;;;10.80;99.90;;;;;;6244768;22;20350;-84
2023/03/19 10:08:08;;;;;;;22.00;19.70;;;10.70;99.90;;;;;;6242739;22;20362;-83
2023/03/19 10:10:47;;;;;;;21.60;19.30;;;10.80;99.90;;;;;;6272609;22;20349;-84
2023/03/19 10:13:33;;;;;;;22.85;20.48;;;11.10;99.90;;;;;;6245555;22;20722;-84
2023/03/19 10:16:00;;;;;;;20.10;18.15;;;11.00;99.90;;;;;;6274141;22;20369;-84
2023/03/19 10:18:34;;;;;;;19.80;17.83;;;11.30;99.90;;;;;;6271303;22;20900;-85
2023/03/19 10:21:10;;;;;;;18.90;16.52;;;11.70;99.90;;;;;;6273861;22;20426;-84
2023/03/19 10:23:54;;;;;;;17.08;15.27;;;12.10;99.90;;;;;;6270811;22;20395;-84
2023/03/19 10:26:30;;;;;;;16.77;14.98;;;12.60;99.90;;;;;;6247481;22;20418;-84
2023/03/19 10:29:17;;;;;;;17.17;15.48;;;12.60;99.90;;;;;;6245041;22;20350;-85
2023/03/19 10:32:03;;;;;;;17.77;14.82;;;12.70;99.90;;;;;;6246157;22;20491;-86
2023/03/19 10:34:35;;;;;;;19.70;17.60;;;12.90;99.90;;;;;;6271838;22;20808;-85
2023/03/19 10:37:08;;;;;;;18.05;16.15;;;12.90;99.90;;;;;;6272234;22;20343;-85
2023/03/19 10:39:40;;;;;;;17.85;15.73;;;12.80;99.90;;;;;;6245491;22;20453;-85
2023/03/19 10:42:21;;;;;;;17.90;16.10;;;12.90;99.90;;;;;;6245038;22;20389;-85
2023/03/19 10:45:10;;;;;;;18.73;16.30;;;13.00;99.90;;;;;;6271963;22;20335;-86
2023/03/19 10:47:42;;;;;;;18.85;16.95;;;13.40;99.90;;;;;;6272938;22;20339;-85
2023/03/19 10:50:22;;;;;;;18.35;15.77;;;13.20;99.90;;;;;;6244819;22;20433;-85
2023/03/19 10:53:08;;;;;;;18.37;16.47;;;13.30;99.90;;;;;;6246440;22;20347;-85
2023/03/19 10:55:46;;;;;;;;;;;;;;;;;;;;;
2023/03/19 10:58:18;;;;;;;17.65;15.45;;;12.90;99.90;;;;;;6274168;22;20406;-85
2023/03/19 11:00:54;;;;;;;21.13;17.95;;;12.70;99.90;;;;;;6248377;22;20350;-85
2023/03/19 11:03:33;;;;;;;24.95;20.90;;;12.70;99.90;;;;;;6281328;22;20342;-85
2023/03/19 11:06:27;;;;;;;16.80;14.95;;;12.90;99.90;;;;;;6257601;22;20351;-85
2023/03/19 11:09:14;;;;;;;19.33;17.38;;;12.90;99.90;;;;;;6244746;22;20346;-83
2023/03/19 11:12:00;;;;;;;15.68;14.13;;;13.10;99.90;;;;;;6296769;22;20334;-85
2023/03/19 11:14:43;;;;;;;14.95;13.07;;;13.40;99.90;;;;;;6269039;22;20359;-84
2023/03/19 11:17:43;;;;;;;15.05;13.45;;;13.70;99.90;;;;;;6246694;22;20381;-84
2023/03/19 11:20:14;;;;;;;14.60;13.10;;;13.30;99.90;;;;;;6272383;22;20335;-84
2023/03/19 11:22:43;;;;;;;17.13;14.23;;;13.50;99.90;;;;;;6245766;22;20359;-84
2023/03/19 11:25:17;;;;;;;14.98;13.35;;;13.20;99.90;;;;;;6271707;22;20346;-84
2023/03/19 11:28:06;;;;;;;13.88;12.35;;;13.20;99.90;;;;;;6245739;22;20359;-85
2023/03/19 11:30:55;;;;;;;13.30;11.93;;;13.50;99.90;;;;;;6270665;22;20339;-85
2023/03/19 11:33:45;;;;;;;14.32;12.60;;;13.60;99.90;;;;;;6274024;22;20395;-85
2023/03/19 11:36:20;;;;;;;12.65;11.27;;;13.40;99.90;;;;;;6273342;22;20366;-85
2023/03/19 11:39:18;;;;;;;12.38;11.07;;;13.50;99.90;;;;;;6273853;22;20843;-84
2023/03/19 11:42:07;;;;;;;12.95;11.30;;;13.90;99.90;;;;;;6204893;22;20355;-84
2023/03/19 11:44:58;;;;;;;13.18;11.77;;;13.80;99.90;;;;;;6271519;22;20351;-83
2023/03/19 11:47:23;;;;;;;17.15;14.80;;;13.60;99.90;;;;;;6273248;22;20370;-85
2023/03/19 11:50:08;;;;;;;15.32;13.38;;;13.30;99.90;;;;;;6246623;22;20604;-84
2023/03/19 11:52:58;;;;;;;19.73;15.95;;;13.50;99.90;;;;;;6272571;22;20361;-83
2023/03/19 11:55:47;;;;;;;37.63;26.80;;;13.60;99.90;;;;;;6272594;22;20774;-86
2023/03/19 11:58:27;;;;;;;16.63;13.90;;;13.70;99.90;;;;;;6245088;22;20416;-84
2023/03/19 12:00:56;;;;;;;34.47;21.98;;;14.10;99.90;;;;;;6238325;22;20647;-84
2023/03/19 12:03:24;;;;;;;18.00;14.02;;;14.30;99.90;;;;;;6279784;22;20410;-83
2023/03/19 12:05:58;;;;;;;17.25;13.80;;;14.30;99.90;;;;;;6273283;22;20346;-85
2023/03/19 12:08:39;;;;;;;14.75;11.95;;;14.40;99.90;;;;;;6247752;22;20661;-86
2023/03/19 12:11:24;;;;;;;12.70;11.32;;;14.50;99.90;;;;;;6273621;22;20346;-86
2023/03/19 12:13:55;;;;;;;11.40;10.20;;;14.30;99.90;;;;;;6276201;22;20359;-89
2023/03/19 12:16:52;;;;;;;11.65;10.07;;;14.50;99.90;;;;;;6272658;22;20397;-88
2023/03/19 12:19:45;;;;;;;9.98;8.98;;;14.30;99.90;;;;;;6275162;22;20393;-89
2023/03/19 12:22:39;;;;;;;11.52;9.02;;;14.40;99.90;;;;;;6248573;22;20346;-90
2023/03/19 12:25:15;;;;;;;10.30;9.15;;;14.50;99.90;;;;;;6247850;22;20423;-90
2023/03/19 12:28:20;;;;;;;11.98;9.70;;;14.50;99.90;;;;;;6248668;22;20828;-88
2023/03/19 12:31:05;;;;;;;11.25;9.55;;;14.30;99.90;;;;;;6275549;22;20381;-89
2023/03/19 12:33:47;;;;;;;10.35;9.18;;;14.30;99.90;;;;;;6276143;22;20416;-88
2023/03/19 12:36:26;;;;;;;11.85;10.63;;;14.60;99.90;;;;;;6249560;22;20401;-88
2023/03/19 12:39:10;;;;;;;10.30;8.07;;;14.80;99.90;;;;;;6249957;22;20355;-90
2023/03/19 12:41:42;;;;;;;11.20;10.10;;;15.00;99.90;;;;;;6276270;22;20350;-88
2023/03/19 12:44:22;;;;;;;9.98;8.82;;;15.10;99.90;;;;;;6248318;22;20363;-88
2023/03/19 12:46:52;;;;;;;9.45;7.80;;;15.20;99.90;;;;;;6253085;22;20397;-88
2023/03/19 12:49:45;;;;;;;8.40;7.50;;;15.20;99.90;;;;;;6249434;22;20358;-88